sensor_id;sensor_type;location;lat;lon;timestamp;pressure;altitude;pressure_sealevel;temperature;humidity
77079;BME280;66004;55.096;38.760;2023-03-08T00:00:59;99115.69;;;-3.62;74.61
77079;BME280;66004;55.096;38.760;2023-03-08T00:03:25;99114.63;;;-3.61;74.75
77079;BME280;66004;55.096;38.760;2023-03-08T00:05:50;99119.03;;;-3.60;74.87
77079;BME280;66004;55.096;38.760;2023-03-08T00:08:16;99117.91;;;-3.59;74.75
77079;BME280;66004;55.096;38.760;2023-03-08T00:10:42;99117.66;;;-3.57;74.96
77079;BME280;66004;55.096;38.760;2023-03-08T00:13:08;99117.94;;;-3.54;74.85
77079;BME280;66004;55.096;38.760;2023-03-08T00:15:36;99117.94;;;-3.48;75.25
77079;BME280;66004;55.096;38.760;2023-03-08T00:18:02;99118.50;;;-3.41;74.91
77079;BME280;66004;55.096;38.760;2023-03-08T00:20:28;99124.31;;;-3.38;74.89
77079;BME280;66004;55.096;38.760;2023-03-08T00:22:53;99120.19;;;-3.40;74.92
77079;BME280;66004;55.096;38.760;2023-03-08T00:25:19;99110.81;;;-3.49;75.00
77079;BME280;66004;55.096;38.760;2023-03-08T00:27:44;99127.88;;;-3.37;74.82
77079;BME280;66004;55.096;38.760;2023-03-08T00:30:11;99121.81;;;-3.39;74.88
77079;BME280;66004;55.096;38.760;2023-03-08T00:32:36;99132.81;;;-3.39;74.61
77079;BME280;66004;55.096;38.760;2023-03-08T00:35:02;99120.16;;;-3.45;74.64
77079;BME280;66004;55.096;38.760;2023-03-08T00:37:27;99119.88;;;-3.54;75.00
77079;BME280;66004;55.096;38.760;2023-03-08T00:39:53;99138.81;;;-3.53;75.03
77079;BME280;66004;55.096;38.760;2023-03-08T00:42:20;99142.13;;;-3.50;74.84
77079;BME280;66004;55.096;38.760;2023-03-08T00:44:45;99136.94;;;-3.47;75.09
77079;BME280;66004;55.096;38.760;2023-03-08T00:47:11;99137.78;;;-3.46;74.79
77079;BME280;66004;55.096;38.760;2023-03-08T00:49:36;99135.00;;;-3.52;74.85
77079;BME280;66004;55.096;38.760;2023-03-08T00:52:02;99131.69;;;-3.48;74.77
77079;BME280;66004;55.096;38.760;2023-03-08T00:54:30;99138.88;;;-3.42;75.03
77079;BME280;66004;55.096;38.760;2023-03-08T00:56:56;99137.78;;;-3.41;75.00
77079;BME280;66004;55.096;38.760;2023-03-08T00:59:22;99131.44;;;-3.42;74.52
77079;BME280;66004;55.096;38.760;2023-03-08T01:01:47;99141.91;;;-3.34;74.76
77079;BME280;66004;55.096;38.760;2023-03-08T01:04:13;99144.41;;;-3.32;74.58
77079;BME280;66004;55.096;38.760;2023-03-08T01:06:39;99141.63;;;-3.37;74.39
77079;BME280;66004;55.096;38.760;2023-03-08T01:09:05;99151.50;;;-3.41;74.43
77079;BME280;66004;55.096;38.760;2023-03-08T01:11:31;99149.31;;;-3.49;74.36
77079;BME280;66004;55.096;38.760;2023-03-08T01:13:59;99157.53;;;-3.55;74.47
77079;BME280;66004;55.096;38.760;2023-03-08T01:16:27;99145.38;;;-3.64;74.91
77079;BME280;66004;55.096;38.760;2023-03-08T01:18:54;99147.31;;;-3.64;74.54
77079;BME280;66004;55.096;38.760;2023-03-08T01:21:20;99158.06;;;-3.58;74.42
77079;BME280;66004;55.096;38.760;2023-03-08T01:23:47;99158.06;;;-3.58;74.68
77079;BME280;66004;55.096;38.760;2023-03-08T01:26:16;99149.50;;;-3.66;74.76
77079;BME280;66004;55.096;38.760;2023-03-08T01:28:42;99152.50;;;-3.78;74.83
77079;BME280;66004;55.096;38.760;2023-03-08T01:31:10;99152.97;;;-3.86;75.05
77079;BME280;66004;55.096;38.760;2023-03-08T01:33:36;99151.25;;;-4.03;75.39
77079;BME280;66004;55.096;38.760;2023-03-08T01:36:06;99152.31;;;-4.09;75.53
77079;BME280;66004;55.096;38.760;2023-03-08T01:38:32;99156.41;;;-4.12;75.69
77079;BME280;66004;55.096;38.760;2023-03-08T01:40:58;99158.56;;;-4.19;75.88
77079;BME280;66004;55.096;38.760;2023-03-08T01:48:58;99158.13;;;-4.43;76.07
77079;BME280;66004;55.096;38.760;2023-03-08T01:51:38;99154.22;;;-4.52;76.09
77079;BME280;66004;55.096;38.760;2023-03-08T01:54:27;99150.84;;;-4.64;76.32
77079;BME280;66004;55.096;38.760;2023-03-08T01:56:58;99149.59;;;-4.79;76.43
77079;BME280;66004;55.096;38.760;2023-03-08T01:59:25;99149.84;;;-4.85;76.71
77079;BME280;66004;55.096;38.760;2023-03-08T02:01:54;99166.00;;;-4.89;76.77
77079;BME280;66004;55.096;38.760;2023-03-08T02:04:19;99143.34;;;-5.06;76.49
77079;BME280;66004;55.096;38.760;2023-03-08T02:06:45;99160.41;;;-4.99;76.76
77079;BME280;66004;55.096;38.760;2023-03-08T02:09:11;99153.16;;;-5.11;77.00
77079;BME280;66004;55.096;38.760;2023-03-08T02:11:39;99175.09;;;-5.11;77.07
77079;BME280;66004;55.096;38.760;2023-03-08T02:14:05;99163.41;;;-5.28;77.07
77079;BME280;66004;55.096;38.760;2023-03-08T02:16:31;99158.97;;;-5.34;77.01
77079;BME280;66004;55.096;38.760;2023-03-08T02:19:02;99174.91;;;-5.31;76.94
77079;BME280;66004;55.096;38.760;2023-03-08T02:21:30;99163.81;;;-5.41;77.04
77079;BME280;66004;55.096;38.760;2023-03-08T02:24:04;99167.13;;;-5.39;77.02
77079;BME280;66004;55.096;38.760;2023-03-08T02:26:32;99172.59;;;-5.39;77.02
77079;BME280;66004;55.096;38.760;2023-03-08T02:28:57;99178.28;;;-5.46;76.68
77079;BME280;66004;55.096;38.760;2023-03-08T02:31:22;99155.88;;;-5.65;76.79
77079;BME280;66004;55.096;38.760;2023-03-08T02:33:48;99169.06;;;-5.62;76.71
77079;BME280;66004;55.096;38.760;2023-03-08T02:36:13;99166.25;;;-5.67;76.76
77079;BME280;66004;55.096;38.760;2023-03-08T02:38:39;99171.03;;;-5.57;76.55
77079;BME280;66004;55.096;38.760;2023-03-08T02:41:05;99175.00;;;-5.48;76.48
77079;BME280;66004;55.096;38.760;2023-03-08T02:43:30;99185.22;;;-5.38;76.44
77079;BME280;66004;55.096;38.760;2023-03-08T02:45:56;99186.38;;;-5.34;75.95
77079;BME280;66004;55.096;38.760;2023-03-08T02:48:21;99137.31;;;-5.58;75.42
77079;BME280;66004;55.096;38.760;2023-03-08T02:53:01;99181.53;;;-5.27;74.47
77079;BME280;66004;55.096;38.760;2023-03-08T02:55:27;99178.53;;;-5.25;74.10
77079;BME280;66004;55.096;38.760;2023-03-08T02:57:53;99165.66;;;-5.25;74.42
77079;BME280;66004;55.096;38.760;2023-03-08T03:00:18;99178.41;;;-5.09;73.84
77079;BME280;66004;55.096;38.760;2023-03-08T03:02:44;99169.09;;;-5.07;73.82
77079;BME280;66004;55.096;38.760;2023-03-08T03:05:10;99157.00;;;-5.12;73.71
77079;BME280;66004;55.096;38.760;2023-03-08T03:07:37;99169.19;;;-4.97;73.59
77079;BME280;66004;55.096;38.760;2023-03-08T03:10:04;99161.63;;;-4.85;73.95
77079;BME280;66004;55.096;38.760;2023-03-08T03:12:29;99162.88;;;-4.71;73.65
77079;BME280;66004;55.096;38.760;2023-03-08T03:14:55;99159.31;;;-4.66;73.77
77079;BME280;66004;55.096;38.760;2023-03-08T03:17:21;99171.00;;;-4.48;73.81
77079;BME280;66004;55.096;38.760;2023-03-08T03:19:46;99172.47;;;-4.36;73.44
77079;BME280;66004;55.096;38.760;2023-03-08T03:22:12;99167.06;;;-4.25;73.54
77079;BME280;66004;55.096;38.760;2023-03-08T03:24:37;99176.16;;;-4.15;73.71
77079;BME280;66004;55.096;38.760;2023-03-08T03:27:03;99167.16;;;-4.10;73.87
77079;BME280;66004;55.096;38.760;2023-03-08T03:29:28;99172.09;;;-4.07;73.67
77079;BME280;66004;55.096;38.760;2023-03-08T03:31:54;99173.75;;;-4.06;73.97
77079;BME280;66004;55.096;38.760;2023-03-08T03:34:19;99179.28;;;-4.01;73.80
77079;BME280;66004;55.096;38.760;2023-03-08T03:36:45;99187.53;;;-4.01;73.97
77079;BME280;66004;55.096;38.760;2023-03-08T03:39:11;99187.00;;;-3.98;74.01
77079;BME280;66004;55.096;38.760;2023-03-08T03:41:36;99190.28;;;-3.96;73.84
77079;BME280;66004;55.096;38.760;2023-03-08T03:44:01;99183.97;;;-3.96;74.16
77079;BME280;66004;55.096;38.760;2023-03-08T03:46:27;99180.38;;;-4.02;74.30
77079;BME280;66004;55.096;38.760;2023-03-08T03:48:52;99191.66;;;-3.98;74.90
77079;BME280;66004;55.096;38.760;2023-03-08T03:51:20;99195.28;;;-3.93;74.21
77079;BME280;66004;55.096;38.760;2023-03-08T03:53:46;99205.75;;;-3.89;74.49
77079;BME280;66004;55.096;38.760;2023-03-08T03:58:38;99189.16;;;-4.05;74.52
77079;BME280;66004;55.096;38.760;2023-03-08T04:01:14;99196.25;;;-4.09;74.56
77079;BME280;66004;55.096;38.760;2023-03-08T04:03:41;99197.84;;;-4.18;74.47
77079;BME280;66004;55.096;38.760;2023-03-08T04:06:15;99192.84;;;-4.26;74.90
77079;BME280;66004;55.096;38.760;2023-03-08T04:08:42;99203.88;;;-4.21;74.46
77079;BME280;66004;55.096;38.760;2023-03-08T04:11:12;99205.53;;;-4.20;74.79
77079;BME280;66004;55.096;38.760;2023-03-08T04:13:38;99208.25;;;-4.25;74.78
77079;BME280;66004;55.096;38.760;2023-03-08T04:16:13;99206.06;;;-4.23;74.75
77079;BME280;66004;55.096;38.760;2023-03-08T04:18:40;99215.38;;;-4.24;74.73
77079;BME280;66004;55.096;38.760;2023-03-08T04:21:05;99206.53;;;-4.37;74.65
77079;BME280;66004;55.096;38.760;2023-03-08T04:23:31;99200.09;;;-4.47;74.83
77079;BME280;66004;55.096;38.760;2023-03-08T04:25:57;99191.00;;;-4.53;75.21
77079;BME280;66004;55.096;38.760;2023-03-08T04:28:22;99202.06;;;-4.43;74.97
77079;BME280;66004;55.096;38.760;2023-03-08T04:30:48;99217.41;;;-4.47;74.91
77079;BME280;66004;55.096;38.760;2023-03-08T04:33:13;99208.53;;;-4.59;75.26
77079;BME280;66004;55.096;38.760;2023-03-08T04:35:39;99203.34;;;-4.56;75.09
77079;BME280;66004;55.096;38.760;2023-03-08T04:38:04;99218.00;;;-4.40;74.89
77079;BME280;66004;55.096;38.760;2023-03-08T04:40:30;99225.19;;;-4.39;74.80
77079;BME280;66004;55.096;38.760;2023-03-08T04:42:55;99225.25;;;-4.28;74.65
77079;BME280;66004;55.096;38.760;2023-03-08T04:45:21;99217.53;;;-4.32;74.98
77079;BME280;66004;55.096;38.760;2023-03-08T04:47:46;99231.41;;;-4.11;74.83
77079;BME280;66004;55.096;38.760;2023-03-08T04:50:12;99211.66;;;-4.08;74.60
77079;BME280;66004;55.096;38.760;2023-03-08T04:52:38;99245.84;;;-3.88;73.87
77079;BME280;66004;55.096;38.760;2023-03-08T04:55:04;99239.84;;;-3.85;73.98
77079;BME280;66004;55.096;38.760;2023-03-08T04:57:30;99246.75;;;-3.78;74.12
77079;BME280;66004;55.096;38.760;2023-03-08T04:59:55;99255.84;;;-3.72;73.96
77079;BME280;66004;55.096;38.760;2023-03-08T05:02:22;99255.34;;;-3.69;73.81
77079;BME280;66004;55.096;38.760;2023-03-08T05:04:48;99248.22;;;-3.65;73.92
77079;BME280;66004;55.096;38.760;2023-03-08T05:07:13;99257.63;;;-3.50;73.72
77079;BME280;66004;55.096;38.760;2023-03-08T05:09:39;99266.44;;;-3.48;73.53
77079;BME280;66004;55.096;38.760;2023-03-08T05:12:04;99265.31;;;-3.53;73.48
77079;BME280;66004;55.096;38.760;2023-03-08T05:14:30;99263.06;;;-3.61;73.40
77079;BME280;66004;55.096;38.760;2023-03-08T05:16:56;99270.81;;;-3.53;73.25
77079;BME280;66004;55.096;38.760;2023-03-08T05:19:21;99268.09;;;-3.47;73.23
77079;BME280;66004;55.096;38.760;2023-03-08T05:21:47;99265.09;;;-3.46;73.05
77079;BME280;66004;55.096;38.760;2023-03-08T05:24:12;99265.16;;;-3.30;72.81
77079;BME280;66004;55.096;38.760;2023-03-08T05:26:38;99268.22;;;-3.17;72.53
77079;BME280;66004;55.096;38.760;2023-03-08T05:29:03;99276.00;;;-3.08;72.47
77079;BME280;66004;55.096;38.760;2023-03-08T05:31:31;99271.59;;;-3.04;72.14
77079;BME280;66004;55.096;38.760;2023-03-08T05:33:57;99271.09;;;-2.91;72.01
77079;BME280;66004;55.096;38.760;2023-03-08T05:36:22;99273.31;;;-2.78;71.89
77079;BME280;66004;55.096;38.760;2023-03-08T05:38:52;99277.75;;;-2.66;71.57
77079;BME280;66004;55.096;38.760;2023-03-08T05:41:19;99265.09;;;-2.67;71.03
77079;BME280;66004;55.096;38.760;2023-03-08T05:43:45;99276.13;;;-2.57;71.07
77079;BME280;66004;55.096;38.760;2023-03-08T05:46:13;99276.69;;;-2.50;70.89
77079;BME280;66004;55.096;38.760;2023-03-08T05:48:39;99293.78;;;-2.43;70.81
77079;BME280;66004;55.096;38.760;2023-03-08T05:51:10;99276.69;;;-2.40;70.76
77079;BME280;66004;55.096;38.760;2023-03-08T05:53:36;99271.75;;;-2.43;70.47
77079;BME280;66004;55.096;38.760;2023-03-08T05:56:16;99275.03;;;-2.51;70.23
77079;BME280;66004;55.096;38.760;2023-03-08T05:58:43;99274.78;;;-2.44;70.42
77079;BME280;66004;55.096;38.760;2023-03-08T06:01:28;99272.88;;;-2.39;70.28
77079;BME280;66004;55.096;38.760;2023-03-08T06:03:55;99266.78;;;-2.36;70.23
77079;BME280;66004;55.096;38.760;2023-03-08T06:06:23;99258.28;;;-2.24;69.92
77079;BME280;66004;55.096;38.760;2023-03-08T06:08:49;99264.06;;;-2.10;69.35
77079;BME280;66004;55.096;38.760;2023-03-08T06:11:15;99254.13;;;-2.16;69.59
77079;BME280;66004;55.096;38.760;2023-03-08T06:13:40;99270.66;;;-2.06;69.24
77079;BME280;66004;55.096;38.760;2023-03-08T06:16:07;99274.50;;;-2.02;69.30
77079;BME280;66004;55.096;38.760;2023-03-08T06:18:32;99274.78;;;-1.93;69.28
77079;BME280;66004;55.096;38.760;2023-03-08T06:23:26;99276.16;;;-1.85;68.35
77079;BME280;66004;55.096;38.760;2023-03-08T06:25:52;99270.38;;;-1.89;68.46
77079;BME280;66004;55.096;38.760;2023-03-08T06:28:18;99272.88;;;-1.82;68.23
77079;BME280;66004;55.096;38.760;2023-03-08T06:30:46;99278.09;;;-1.76;68.34
77079;BME280;66004;55.096;38.760;2023-03-08T06:33:13;99279.47;;;-1.83;68.03
77079;BME280;66004;55.096;38.760;2023-03-08T06:35:40;99284.97;;;-1.83;68.21
77079;BME280;66004;55.096;38.760;2023-03-08T06:38:05;99278.09;;;-1.70;67.90
77079;BME280;66004;55.096;38.760;2023-03-08T06:40:30;99277.81;;;-1.64;67.75
77079;BME280;66004;55.096;38.760;2023-03-08T06:42:56;99275.59;;;-1.62;67.32
77079;BME280;66004;55.096;38.760;2023-03-08T06:45:21;99264.53;;;-1.51;67.45
77079;BME280;66004;55.096;38.760;2023-03-08T06:47:47;99273.88;;;-1.37;67.37
77079;BME280;66004;55.096;38.760;2023-03-08T06:50:12;99249.59;;;-1.40;66.55
77079;BME280;66004;55.096;38.760;2023-03-08T06:52:41;99273.88;;;-1.42;66.47
77079;BME280;66004;55.096;38.760;2023-03-08T06:55:07;99265.63;;;-1.42;66.21
77079;BME280;66004;55.096;38.760;2023-03-08T06:57:32;99267.25;;;-1.36;66.00
77079;BME280;66004;55.096;38.760;2023-03-08T06:59:58;99265.53;;;-1.16;66.06
77079;BME280;66004;55.096;38.760;2023-03-08T07:02:23;99251.31;;;-0.84;65.49
77079;BME280;66004;55.096;38.760;2023-03-08T07:04:49;99252.56;;;-0.66;64.68
77079;BME280;66004;55.096;38.760;2023-03-08T07:07:14;99238.31;;;-0.79;64.49
77079;BME280;66004;55.096;38.760;2023-03-08T07:09:40;99246.97;;;-0.51;64.27
77079;BME280;66004;55.096;38.760;2023-03-08T07:12:05;99244.03;;;-0.30;63.90
77079;BME280;66004;55.096;38.760;2023-03-08T07:14:31;99241.09;;;-0.05;62.85
77079;BME280;66004;55.096;38.760;2023-03-08T07:16:56;99241.19;;;-0.15;63.15
77079;BME280;66004;55.096;38.760;2023-03-08T07:19:22;99234.13;;;-0.02;63.26
77079;BME280;66004;55.096;38.760;2023-03-08T07:21:47;99237.25;;;0.21;62.62
77079;BME280;66004;55.096;38.760;2023-03-08T07:24:13;99235.38;;;0.16;62.15
77079;BME280;66004;55.096;38.760;2023-03-08T07:26:38;99231.88;;;0.34;62.23
77079;BME280;66004;55.096;38.760;2023-03-08T07:29:04;99220.13;;;0.48;61.51
77079;BME280;66004;55.096;38.760;2023-03-08T07:31:30;99210.69;;;0.49;61.32
77079;BME280;66004;55.096;38.760;2023-03-08T07:33:57;99213.25;;;0.16;60.75
77079;BME280;66004;55.096;38.760;2023-03-08T07:36:22;99217.56;;;0.27;60.62
77079;BME280;66004;55.096;38.760;2023-03-08T07:38:48;99219.63;;;0.41;60.90
77079;BME280;66004;55.096;38.760;2023-03-08T07:41:13;99205.22;;;0.44;60.19
77079;BME280;66004;55.096;38.760;2023-03-08T07:43:39;99216.09;;;0.35;59.81
77079;BME280;66004;55.096;38.760;2023-03-08T07:46:05;99218.81;;;0.40;59.97
77079;BME280;66004;55.096;38.760;2023-03-08T07:48:31;99222.34;;;0.46;60.08
77079;BME280;66004;55.096;38.760;2023-03-08T07:51:04;99218.84;;;0.64;59.51
77079;BME280;66004;55.096;38.760;2023-03-08T07:53:32;99217.16;;;0.63;59.52
77079;BME280;66004;55.096;38.760;2023-03-08T07:55:58;99203.38;;;0.58;59.42
77079;BME280;66004;55.096;38.760;2023-03-08T07:58:25;99190.31;;;0.39;59.09
77079;BME280;66004;55.096;38.760;2023-03-08T08:00:50;99203.25;;;0.20;59.59
77079;BME280;66004;55.096;38.760;2023-03-08T08:03:16;99202.06;;;0.26;60.08
77079;BME280;66004;55.096;38.760;2023-03-08T08:05:41;99189.16;;;0.46;59.65
77079;BME280;66004;55.096;38.760;2023-03-08T08:08:07;99201.84;;;0.47;59.09
77079;BME280;66004;55.096;38.760;2023-03-08T08:10:34;99197.75;;;0.15;58.78
77079;BME280;66004;55.096;38.760;2023-03-08T08:13:00;99193.66;;;-0.17;59.47
77079;BME280;66004;55.096;38.760;2023-03-08T08:15:25;99186.97;;;-0.11;59.74
77079;BME280;66004;55.096;38.760;2023-03-08T08:17:52;99188.91;;;0.42;59.22
77079;BME280;66004;55.096;38.760;2023-03-08T08:20:17;99205.28;;;0.87;58.59
77079;BME280;66004;55.096;38.760;2023-03-08T08:22:43;99215.47;;;1.10;58.23
77079;BME280;66004;55.096;38.760;2023-03-08T08:25:08;99209.34;;;1.13;58.52
77079;BME280;66004;55.096;38.760;2023-03-08T08:27:35;99222.28;;;1.18;58.33
77079;BME280;66004;55.096;38.760;2023-03-08T08:30:04;99226.03;;;1.08;58.11
77079;BME280;66004;55.096;38.760;2023-03-08T08:32:29;99202.88;;;0.99;58.22
77079;BME280;66004;55.096;38.760;2023-03-08T08:34:56;99224.56;;;0.92;58.11
77079;BME280;66004;55.096;38.760;2023-03-08T08:37:22;99212.56;;;0.77;58.58
77079;BME280;66004;55.096;38.760;2023-03-08T08:39:47;99217.50;;;0.81;58.39
77079;BME280;66004;55.096;38.760;2023-03-08T08:42:13;99195.81;;;0.88;58.46
77079;BME280;66004;55.096;38.760;2023-03-08T08:44:38;99191.22;;;1.02;58.28
77079;BME280;66004;55.096;38.760;2023-03-08T08:47:04;99176.69;;;1.10;57.94
77079;BME280;66004;55.096;38.760;2023-03-08T09:07:21;99153.28;;;2.34;51.93
77079;BME280;66004;55.096;38.760;2023-03-08T09:09:47;99155.69;;;2.08;52.27
77079;BME280;66004;55.096;38.760;2023-03-08T09:12:12;99149.34;;;2.07;52.42
77079;BME280;66004;55.096;38.760;2023-03-08T09:14:38;99148.06;;;2.00;52.38
77079;BME280;66004;55.096;38.760;2023-03-08T09:17:04;99144.97;;;1.87;52.84
77079;BME280;66004;55.096;38.760;2023-03-08T09:19:31;99145.41;;;1.94;52.65
77079;BME280;66004;55.096;38.760;2023-03-08T09:21:56;99148.06;;;2.00;52.64
77079;BME280;66004;55.096;38.760;2023-03-08T09:24:22;99140.22;;;1.74;52.75
77079;BME280;66004;55.096;38.760;2023-03-08T09:26:48;99139.75;;;1.53;52.93
77079;BME280;66004;55.096;38.760;2023-03-08T09:29:13;99120.53;;;1.24;53.08
77079;BME280;66004;55.096;38.760;2023-03-08T09:31:40;99120.53;;;1.24;53.76
77079;BME280;66004;55.096;38.760;2023-03-08T09:34:10;99113.09;;;1.38;53.89
77079;BME280;66004;55.096;38.760;2023-03-08T09:36:37;99116.91;;;1.42;53.44
77079;BME280;66004;55.096;38.760;2023-03-08T09:39:04;99120.19;;;1.44;53.67
77079;BME280;66004;55.096;38.760;2023-03-08T09:52:39;99100.28;;;1.42;53.90
77079;BME280;66004;55.096;38.760;2023-03-08T09:55:33;99096.16;;;1.86;53.11
77079;BME280;66004;55.096;38.760;2023-03-08T09:58:21;99090.56;;;2.19;52.82
77079;BME280;66004;55.096;38.760;2023-03-08T10:00:49;99092.94;;;2.40;52.30
77079;BME280;66004;55.096;38.760;2023-03-08T10:13:57;99081.72;;;2.17;51.72
77079;BME280;66004;55.096;38.760;2023-03-08T10:16:27;99083.97;;;1.87;52.32
77079;BME280;66004;55.096;38.760;2023-03-08T10:19:04;99068.72;;;1.71;52.47
77079;BME280;66004;55.096;38.760;2023-03-08T10:21:32;99052.50;;;1.78;53.30
77079;BME280;66004;55.096;38.760;2023-03-08T10:24:28;99057.03;;;1.88;52.57
77079;BME280;66004;55.096;38.760;2023-03-08T10:26:52;99053.97;;;1.89;52.78
77079;BME280;66004;55.096;38.760;2023-03-08T10:29:18;99053.34;;;1.92;52.59
77079;BME280;66004;55.096;38.760;2023-03-08T10:31:44;99048.41;;;1.89;52.63
77079;BME280;66004;55.096;38.760;2023-03-08T10:34:21;99039.78;;;1.91;52.51
77079;BME280;66004;55.096;38.760;2023-03-08T10:36:59;99030.75;;;1.99;52.45
77079;BME280;66004;55.096;38.760;2023-03-08T10:39:25;99002.81;;;1.68;52.44
77079;BME280;66004;55.096;38.760;2023-03-08T10:41:56;99013.69;;;1.78;52.51
77079;BME280;66004;55.096;38.760;2023-03-08T10:44:31;99024.06;;;1.86;52.28
77079;BME280;66004;55.096;38.760;2023-03-08T10:46:58;99024.97;;;1.95;52.19
77079;BME280;66004;55.096;38.760;2023-03-08T10:49:24;99027.56;;;2.06;51.38
77079;BME280;66004;55.096;38.760;2023-03-08T10:51:58;99027.06;;;2.04;51.82
77079;BME280;66004;55.096;38.760;2023-03-08T10:54:24;99007.94;;;2.02;51.80
77079;BME280;66004;55.096;38.760;2023-03-08T10:59:20;99003.63;;;2.10;50.90
77079;BME280;66004;55.096;38.760;2023-03-08T11:01:55;98998.28;;;1.72;51.84
77079;BME280;66004;55.096;38.760;2023-03-08T11:04:23;99008.88;;;1.70;52.10
77079;BME280;66004;55.096;38.760;2023-03-08T11:06:49;98995.31;;;1.54;52.20
77079;BME280;66004;55.096;38.760;2023-03-08T11:09:29;99007.72;;;1.43;52.12
77079;BME280;66004;55.096;38.760;2023-03-08T11:11:57;98991.50;;;1.78;52.27
77079;BME280;66004;55.096;38.760;2023-03-08T11:14:24;98986.97;;;1.82;51.70
77079;BME280;66004;55.096;38.760;2023-03-08T11:17:50;98979.78;;;1.53;51.95
77079;BME280;66004;55.096;38.760;2023-03-08T11:38:37;98952.50;;;1.00;53.23
77079;BME280;66004;55.096;38.760;2023-03-08T11:44:03;98958.72;;;0.92;53.61
77079;BME280;66004;55.096;38.760;2023-03-08T11:58:21;98917.59;;;0.99;54.00
77079;BME280;66004;55.096;38.760;2023-03-08T12:00:52;98919.84;;;0.97;53.83
77079;BME280;66004;55.096;38.760;2023-03-08T12:03:27;98902.31;;;1.02;53.95
77079;BME280;66004;55.096;38.760;2023-03-08T12:05:58;98903.97;;;0.89;53.89
77079;BME280;66004;55.096;38.760;2023-03-08T12:11:10;98905.59;;;0.90;53.69
77079;BME280;66004;55.096;38.760;2023-03-08T12:13:46;98901.06;;;0.94;54.01
77079;BME280;66004;55.096;38.760;2023-03-08T12:16:17;98901.53;;;1.15;54.01
77079;BME280;66004;55.096;38.760;2023-03-08T12:18:57;98887.19;;;1.27;53.52
77079;BME280;66004;55.096;38.760;2023-03-08T12:21:45;98889.63;;;1.14;53.59
77079;BME280;66004;55.096;38.760;2023-03-08T12:24:26;98883.25;;;1.00;54.33
77079;BME280;66004;55.096;38.760;2023-03-08T12:29:36;98869.88;;;0.88;54.61
77079;BME280;66004;55.096;38.760;2023-03-08T12:32:04;98864.94;;;0.71;55.08
77079;BME280;66004;55.096;38.760;2023-03-08T12:34:38;98868.16;;;0.46;55.33
77079;BME280;66004;55.096;38.760;2023-03-08T12:37:22;98859.56;;;0.47;55.64
77079;BME280;66004;55.096;38.760;2023-03-08T12:40:27;98849.72;;;0.55;55.48
77079;BME280;66004;55.096;38.760;2023-03-08T12:43:08;98849.94;;;0.58;55.46
77079;BME280;66004;55.096;38.760;2023-03-08T12:45:35;98844.22;;;0.69;55.35
77079;BME280;66004;55.096;38.760;2023-03-08T12:50:26;98823.69;;;0.56;55.36
77079;BME280;66004;55.096;38.760;2023-03-08T12:52:52;98816.69;;;0.45;55.88
77079;BME280;66004;55.096;38.760;2023-03-08T12:55:26;98822.44;;;0.48;55.83
77079;BME280;66004;55.096;38.760;2023-03-08T12:57:57;98820.97;;;0.37;55.92
77079;BME280;66004;55.096;38.760;2023-03-08T13:00:26;98792.41;;;0.09;56.41
77079;BME280;66004;55.096;38.760;2023-03-08T13:03:04;98803.91;;;0.16;56.65
77079;BME280;66004;55.096;38.760;2023-03-08T13:05:35;98787.81;;;0.18;56.73
77079;BME280;66004;55.096;38.760;2023-03-08T13:11:02;98786.00;;;0.27;56.64
77079;BME280;66004;55.096;38.760;2023-03-08T13:16:29;98768.28;;;0.28;57.03
77079;BME280;66004;55.096;38.760;2023-03-08T13:19:15;98773.22;;;0.31;56.92
77079;BME280;66004;55.096;38.760;2023-03-08T13:29:31;98734.78;;;-0.17;58.32
77079;BME280;66004;55.096;38.760;2023-03-08T13:32:03;98719.78;;;-0.30;58.70
77079;BME280;66004;55.096;38.760;2023-03-08T13:34:32;98700.88;;;-0.42;59.11
77079;BME280;66004;55.096;38.760;2023-03-08T13:36:58;98709.97;;;-0.22;58.77
77079;BME280;66004;55.096;38.760;2023-03-08T13:39:26;98696.19;;;-0.41;59.54
77079;BME280;66004;55.096;38.760;2023-03-08T13:41:52;98700.44;;;-0.49;59.58
77079;BME280;66004;55.096;38.760;2023-03-08T13:44:29;98691.19;;;-0.58;59.92
77079;BME280;66004;55.096;38.760;2023-03-08T13:46:57;98700.53;;;-0.54;60.65
77079;BME280;66004;55.096;38.760;2023-03-08T13:49:35;98672.38;;;-0.56;59.67
77079;BME280;66004;55.096;38.760;2023-03-08T13:52:03;98669.63;;;-0.56;60.25
77079;BME280;66004;55.096;38.760;2023-03-08T13:57:01;98682.41;;;-0.60;60.73
77079;BME280;66004;55.096;38.760;2023-03-08T13:59:28;98685.69;;;-0.58;60.96
77079;BME280;66004;55.096;38.760;2023-03-08T14:01:54;98680.75;;;-0.61;60.95
77079;BME280;66004;55.096;38.760;2023-03-08T14:04:26;98678.91;;;-0.66;60.82
77079;BME280;66004;55.096;38.760;2023-03-08T14:06:57;98670.28;;;-0.64;61.34
77079;BME280;66004;55.096;38.760;2023-03-08T14:09:24;98655.53;;;-0.73;61.32
77079;BME280;66004;55.096;38.760;2023-03-08T14:12:02;98660.88;;;-0.63;61.31
77079;BME280;66004;55.096;38.760;2023-03-08T14:16:57;98644.91;;;-0.66;61.49
77079;BME280;66004;55.096;38.760;2023-03-08T14:19:31;98655.81;;;-0.56;61.53
77079;BME280;66004;55.096;38.760;2023-03-08T14:22:01;98648.63;;;-0.57;61.70
77079;BME280;66004;55.096;38.760;2023-03-08T14:24:30;98637.75;;;-0.67;61.78
77079;BME280;66004;55.096;38.760;2023-03-08T14:27:00;98633.84;;;-0.66;62.10
77079;BME280;66004;55.096;38.760;2023-03-08T14:29:28;98625.06;;;-0.68;62.12
77079;BME280;66004;55.096;38.760;2023-03-08T14:34:51;98614.69;;;-0.76;62.45
77079;BME280;66004;55.096;38.760;2023-03-08T14:37:29;98600.91;;;-0.76;62.39
77079;BME280;66004;55.096;38.760;2023-03-08T14:40:33;98573.88;;;-0.80;62.76
77079;BME280;66004;55.096;38.760;2023-03-08T14:43:05;98586.56;;;-0.79;62.92
77079;BME280;66004;55.096;38.760;2023-03-08T14:45:36;98568.97;;;-0.83;63.27
77079;BME280;66004;55.096;38.760;2023-03-08T14:53:26;98559.88;;;-1.02;63.25
77079;BME280;66004;55.096;38.760;2023-03-08T14:55:53;98557.13;;;-1.02;63.52
77079;BME280;66004;55.096;38.760;2023-03-08T14:58:22;98539.22;;;-1.05;63.78
77079;BME280;66004;55.096;38.760;2023-03-08T15:00:51;98538.22;;;-0.95;63.82